Time;durP1;ratioP1;P1;durP2;ratioP2;P2;SDS_P1;SDS_P2;PMS_P1;PMS_P2;Temp;Humidity;BMP_temperature;BMP_pressure;BME280_temperature;BME280_humidity;BME280_pressure;Samples;Min_cycle;Max_cycle;Signal;HPM_P1;HPM_P2
2022/02/24 00:00:57;;;;;;;14.00;7.47;;;1.00;99.90;;;;;;4934555;29;20388;-82
2022/02/24 00:03:23;;;;;;;14.17;7.60;;;1.10;99.90;;;;;;4951029;29;20407;-85
2022/02/24 00:05:50;;;;;;;13.17;6.97;;;1.00;99.90;;;;;;4933656;29;20392;-83
2022/02/24 00:08:15;;;;;;;11.50;7.07;;;1.00;99.90;;;;;;4933790;29;20404;-82
2022/02/24 00:10:41;;;;;;;13.93;7.17;;;1.00;99.90;;;;;;4951280;29;20405;-83
2022/02/24 00:13:06;;;;;;;17.57;7.30;;;1.00;99.90;;;;;;4933764;29;20388;-83
2022/02/24 00:15:32;;;;;;;15.48;7.90;;;1.00;99.90;;;;;;4951442;29;20878;-83
2022/02/24 00:17:58;;;;;;;15.13;8.27;;;1.00;99.90;;;;;;4933689;29;20396;-83
2022/02/24 00:20:23;;;;;;;13.75;7.60;;;1.00;99.90;;;;;;4950984;29;20384;-83
2022/02/24 00:22:49;;;;;;;17.13;7.80;;;0.90;99.90;;;;;;4933566;29;20906;-86
2022/02/24 00:25:14;;;;;;;19.40;8.50;;;0.90;99.90;;;;;;4934105;29;20439;-83
2022/02/24 00:27:40;;;;;;;18.50;8.27;;;0.90;99.90;;;;;;4933788;29;21046;-84
2022/02/24 00:30:06;;;;;;;16.80;8.05;;;0.90;99.90;;;;;;4934100;29;20454;-82
2022/02/24 00:32:32;;;;;;;16.27;7.85;;;0.90;99.90;;;;;;4933879;29;20392;-83
2022/02/24 00:34:58;;;;;;;17.17;7.63;;;0.90;99.90;;;;;;4951180;29;20376;-86
2022/02/24 00:37:24;;;;;;;15.40;8.00;;;0.90;99.90;;;;;;4933903;29;20415;-82
2022/02/24 00:39:49;;;;;;;15.90;7.83;;;0.90;99.90;;;;;;4933736;29;20952;-86
2022/02/24 00:42:16;;;;;;;13.43;7.50;;;0.90;99.90;;;;;;4933871;29;20498;-85
2022/02/24 00:44:42;;;;;;;15.82;7.38;;;1.00;99.90;;;;;;4951196;29;20376;-85
2022/02/24 00:47:09;;;;;;;16.02;7.20;;;1.00;99.90;;;;;;4951077;29;20388;-85
2022/02/24 00:49:34;;;;;;;17.73;7.75;;;1.10;99.90;;;;;;4933655;29;20395;-84
2022/02/24 00:52:00;;;;;;;14.43;7.63;;;1.10;99.90;;;;;;4964603;28;20760;-83
2022/02/24 00:54:27;;;;;;;16.05;7.38;;;1.20;99.90;;;;;;4952412;28;20387;-84
2022/02/24 00:56:53;;;;;;;15.55;7.40;;;1.20;99.90;;;;;;4963024;28;20391;-83
2022/02/24 00:59:18;;;;;;;15.43;7.27;;;1.20;99.90;;;;;;4983264;28;20386;-85
2022/02/24 01:01:44;;;;;;;14.50;7.43;;;1.20;99.90;;;;;;4974344;28;20445;-85
2022/02/24 01:04:10;;;;;;;15.52;7.18;;;1.20;99.90;;;;;;4955969;28;20395;-83
2022/02/24 01:06:35;;;;;;;17.13;7.63;;;1.20;99.90;;;;;;4974421;28;20398;-85
2022/02/24 01:09:01;;;;;;;14.50;7.43;;;1.20;99.90;;;;;;4956378;28;20538;-85
2022/02/24 01:11:26;;;;;;;17.03;8.03;;;1.10;99.90;;;;;;4955374;28;20872;-85
2022/02/24 01:13:52;;;;;;;17.33;8.10;;;1.10;99.90;;;;;;4973280;28;20470;-82
2022/02/24 01:16:18;;;;;;;14.82;7.68;;;1.10;99.90;;;;;;4956311;28;20401;-84
2022/02/24 01:18:43;;;;;;;15.48;8.25;;;1.10;99.90;;;;;;4956252;28;20379;-85
2022/02/24 01:21:09;;;;;;;14.77;8.27;;;1.20;99.90;;;;;;4956345;28;20960;-85
2022/02/24 01:23:34;;;;;;;15.77;8.10;;;1.10;99.90;;;;;;4974251;28;20422;-84
2022/02/24 01:26:00;;;;;;;17.47;7.47;;;1.20;99.90;;;;;;4973203;28;20949;-84
2022/02/24 01:28:26;;;;;;;15.82;7.97;;;1.20;99.90;;;;;;4974457;28;20425;-83
2022/02/24 01:30:51;;;;;;;13.93;8.13;;;1.10;99.90;;;;;;4956796;28;20888;-84
2022/02/24 01:33:17;;;;;;;16.03;7.13;;;1.10;99.90;;;;;;4973536;28;20389;-85
2022/02/24 01:35:43;;;;;;;14.90;7.80;;;1.10;99.90;;;;;;4973732;28;20394;-85
2022/02/24 01:38:09;;;;;;;17.13;8.23;;;1.10;99.90;;;;;;4956397;28;20407;-85
2022/02/24 01:40:34;;;;;;;18.73;8.47;;;1.10;99.90;;;;;;4956221;28;20394;-84
2022/02/24 01:43:00;;;;;;;19.27;8.17;;;1.10;99.90;;;;;;4972949;28;20406;-86
2022/02/24 01:45:27;;;;;;;15.73;8.47;;;1.00;99.90;;;;;;4973064;28;20386;-84
2022/02/24 01:47:55;;;;;;;14.32;7.78;;;1.10;99.90;;;;;;4955638;28;20903;-84
2022/02/24 01:50:20;;;;;;;19.77;8.48;;;1.10;99.90;;;;;;4972790;28;20418;-86
2022/02/24 01:52:48;;;;;;;15.03;8.23;;;1.10;99.90;;;;;;4955408;28;20845;-83
2022/02/24 01:55:14;;;;;;;17.75;8.60;;;1.10;99.90;;;;;;4973116;28;20386;-83
2022/02/24 01:57:40;;;;;;;13.13;7.57;;;1.10;99.90;;;;;;4972909;28;20434;-85
2022/02/24 02:00:07;;;;;;;14.10;7.23;;;1.10;99.90;;;;;;4972969;28;20418;-83
2022/02/24 02:02:33;;;;;;;15.95;7.10;;;1.10;99.90;;;;;;4972370;28;20407;-86
2022/02/24 02:04:59;;;;;;;14.03;7.43;;;1.10;99.90;;;;;;4955184;28;20548;-86
2022/02/24 02:07:24;;;;;;;13.60;6.82;;;1.10;99.90;;;;;;4954193;28;20394;-82
2022/02/24 02:09:50;;;;;;;14.32;7.25;;;1.10;99.90;;;;;;4972340;28;20387;-86
2022/02/24 02:12:20;;;;;;;16.98;7.32;;;1.10;99.90;;;;;;4972287;28;20734;-85
2022/02/24 02:14:46;;;;;;;13.63;7.38;;;1.20;99.90;;;;;;4972578;28;20393;-83
2022/02/24 02:17:11;;;;;;;13.02;7.15;;;1.10;99.90;;;;;;4954784;28;20386;-86
2022/02/24 02:19:37;;;;;;;13.82;6.93;;;1.10;99.90;;;;;;4972414;28;20386;-84
2022/02/24 02:22:03;;;;;;;14.43;7.15;;;1.10;99.90;;;;;;4954975;28;20510;-83
2022/02/24 02:24:29;;;;;;;14.60;6.80;;;1.10;99.90;;;;;;4971978;28;20402;-84
2022/02/24 02:26:54;;;;;;;14.50;6.68;;;1.10;99.90;;;;;;4955060;28;20464;-83
2022/02/24 02:29:20;;;;;;;14.27;7.22;;;1.10;99.90;;;;;;4955184;28;20446;-84
2022/02/24 02:31:46;;;;;;;14.07;6.97;;;1.10;99.90;;;;;;4954747;28;20391;-83
2022/02/24 02:34:16;;;;;;;13.87;6.70;;;1.10;99.90;;;;;;4954631;28;20476;-84
2022/02/24 02:36:45;;;;;;;12.57;7.05;;;1.10;99.90;;;;;;4954815;28;20477;-83
2022/02/24 02:39:11;;;;;;;13.32;6.55;;;1.20;99.90;;;;;;4954314;28;20421;-84
2022/02/24 02:41:38;;;;;;;15.00;7.22;;;1.20;99.90;;;;;;4954370;28;20379;-84
2022/02/24 02:44:04;;;;;;;13.35;7.13;;;1.20;99.90;;;;;;4954919;28;20386;-84
2022/02/24 02:46:30;;;;;;;11.97;6.77;;;1.10;99.90;;;;;;4954329;28;20375;-83
2022/02/24 02:48:55;;;;;;;11.67;6.83;;;1.20;99.90;;;;;;4971790;28;20734;-83
2022/02/24 02:51:21;;;;;;;12.80;6.97;;;1.20;99.90;;;;;;4954461;28;20402;-84
2022/02/24 02:53:47;;;;;;;15.80;6.70;;;1.20;99.90;;;;;;4972427;28;20467;-85
2022/02/24 02:56:13;;;;;;;12.77;6.57;;;1.20;99.90;;;;;;4955595;28;20406;-85
2022/02/24 02:58:39;;;;;;;15.98;6.60;;;1.20;99.90;;;;;;4953992;28;20407;-85
2022/02/24 03:01:05;;;;;;;14.30;6.73;;;1.20;99.90;;;;;;4972433;28;20390;-85
2022/02/24 03:03:30;;;;;;;16.40;6.70;;;1.20;99.90;;;;;;4954551;28;21126;-86
2022/02/24 03:05:56;;;;;;;16.15;6.85;;;1.20;99.90;;;;;;4972285;28;20477;-84
2022/02/24 03:08:23;;;;;;;16.42;6.70;;;1.30;99.90;;;;;;4954311;28;20503;-86
2022/02/24 03:10:49;;;;;;;15.02;7.18;;;1.30;99.90;;;;;;4955071;28;20386;-85
2022/02/24 03:13:16;;;;;;;10.32;6.32;;;1.30;99.90;;;;;;4954381;28;20418;-83
2022/02/24 03:15:43;;;;;;;17.77;7.57;;;1.30;99.90;;;;;;4954220;28;20394;-86
2022/02/24 03:18:09;;;;;;;16.38;6.95;;;1.30;99.90;;;;;;4971031;28;20374;-85
2022/02/24 03:20:35;;;;;;;16.42;7.60;;;1.40;99.90;;;;;;4971232;28;20382;-84
2022/02/24 03:23:02;;;;;;;13.77;6.70;;;1.40;99.90;;;;;;4971119;28;20916;-83
2022/02/24 03:25:28;;;;;;;13.30;7.35;;;1.40;99.90;;;;;;4971245;28;20477;-85
2022/02/24 03:27:55;;;;;;;15.40;7.37;;;1.40;99.90;;;;;;4953848;28;20527;-85
2022/02/24 03:30:21;;;;;;;14.80;7.47;;;1.40;99.90;;;;;;4971491;28;20379;-85
2022/02/24 03:32:47;;;;;;;16.27;7.40;;;1.40;99.90;;;;;;4953761;28;20452;-85
2022/02/24 03:35:13;;;;;;;14.43;7.20;;;1.40;99.90;;;;;;4970789;28;20379;-82
2022/02/24 03:37:39;;;;;;;16.38;7.97;;;1.40;99.90;;;;;;4953450;28;20883;-85
2022/02/24 03:40:07;;;;;;;15.43;7.63;;;1.40;99.90;;;;;;4953744;28;20404;-84
2022/02/24 03:42:33;;;;;;;18.00;7.70;;;1.30;99.90;;;;;;4971316;28;20421;-85
2022/02/24 03:44:59;;;;;;;14.35;7.18;;;1.30;99.90;;;;;;4953381;28;20383;-84
2022/02/24 03:47:25;;;;;;;14.13;7.47;;;1.30;99.90;;;;;;4953428;28;20488;-83
2022/02/24 03:49:51;;;;;;;12.23;7.00;;;1.30;99.90;;;;;;4953475;28;21058;-83
2022/02/24 03:52:18;;;;;;;13.85;7.40;;;1.30;99.90;;;;;;4953048;28;20410;-86
2022/02/24 03:54:44;;;;;;;14.93;7.55;;;1.30;99.90;;;;;;4970786;28;20398;-84
2022/02/24 03:57:10;;;;;;;17.50;7.45;;;1.30;99.90;;;;;;4970947;28;20422;-85
2022/02/24 03:59:37;;;;;;;14.82;7.43;;;1.20;99.90;;;;;;4970776;28;20423;-85
2022/02/24 04:02:04;;;;;;;13.98;7.40;;;1.20;99.90;;;;;;4971073;28;20414;-84
2022/02/24 04:04:30;;;;;;;17.83;7.00;;;1.20;99.90;;;;;;4971930;28;20379;-83
2022/02/24 04:06:56;;;;;;;13.57;6.82;;;1.30;99.90;;;;;;4970911;28;20394;-84
2022/02/24 04:09:22;;;;;;;12.93;7.20;;;1.30;99.90;;;;;;4953143;28;20420;-86
2022/02/24 04:11:48;;;;;;;12.80;6.85;;;1.30;99.90;;;;;;4970753;28;20729;-86
2022/02/24 04:14:14;;;;;;;14.15;6.75;;;1.30;99.90;;;;;;4970973;28;20401;-86
2022/02/24 04:16:40;;;;;;;14.98;7.07;;;1.30;99.90;;;;;;4970609;28;20417;-85
2022/02/24 04:19:05;;;;;;;14.85;6.55;;;1.30;99.90;;;;;;4953262;28;20422;-82
2022/02/24 04:21:31;;;;;;;14.00;6.53;;;1.40;99.90;;;;;;4971808;28;20386;-84
2022/02/24 04:23:56;;;;;;;16.33;7.23;;;1.40;99.90;;;;;;4970615;28;20377;-83
2022/02/24 04:26:22;;;;;;;17.47;6.60;;;1.40;99.90;;;;;;4954873;28;21035;-85
2022/02/24 04:28:48;;;;;;;15.73;6.63;;;1.40;99.90;;;;;;4954844;28;20903;-82
2022/02/24 04:31:14;;;;;;;12.82;6.43;;;1.40;99.90;;;;;;4972730;28;20414;-86
2022/02/24 04:33:39;;;;;;;12.37;5.90;;;1.50;99.90;;;;;;4956756;28;20422;-83
2022/02/24 04:36:05;;;;;;;13.57;6.32;;;1.60;99.90;;;;;;4957054;28;20888;-82
2022/02/24 04:38:31;;;;;;;11.57;6.35;;;1.50;99.90;;;;;;4974321;28;20963;-84
2022/02/24 04:40:57;;;;;;;14.63;6.47;;;1.60;99.90;;;;;;4974327;28;20745;-85
2022/02/24 04:43:22;;;;;;;12.53;6.77;;;1.60;99.90;;;;;;4957291;28;20488;-84
2022/02/24 04:45:48;;;;;;;16.20;6.50;;;1.60;99.90;;;;;;4957998;28;20911;-82
2022/02/24 04:48:14;;;;;;;12.85;6.28;;;1.60;99.90;;;;;;4944420;28;20428;-84
2022/02/24 04:50:40;;;;;;;14.07;6.05;;;1.50;99.90;;;;;;4962961;28;20410;-84
2022/02/24 04:53:05;;;;;;;12.35;6.00;;;1.60;99.90;;;;;;4962809;28;20390;-83
2022/02/24 04:55:31;;;;;;;11.15;5.72;;;1.70;99.90;;;;;;4979222;28;20498;-85
2022/02/24 04:57:57;;;;;;;14.48;6.25;;;1.60;99.90;;;;;;4978956;28;20406;-85
2022/02/24 05:00:23;;;;;;;12.27;5.90;;;1.60;99.90;;;;;;4959636;28;20963;-82
2022/02/24 05:02:48;;;;;;;8.82;5.40;;;1.70;99.90;;;;;;4974503;28;20493;-82
2022/02/24 05:05:14;;;;;;;13.10;6.15;;;1.60;99.90;;;;;;4975378;28;20844;-83
2022/02/24 05:07:40;;;;;;;13.13;6.00;;;1.70;99.90;;;;;;4959010;28;20450;-85
2022/02/24 05:10:07;;;;;;;16.47;5.87;;;1.70;99.90;;;;;;4974995;28;20399;-83
2022/02/24 05:12:32;;;;;;;12.63;5.00;;;1.70;99.90;;;;;;4958263;28;20426;-84
2022/02/24 05:14:58;;;;;;;12.73;5.47;;;1.70;99.90;;;;;;4958433;28;20429;-85
2022/02/24 05:17:24;;;;;;;12.53;5.37;;;1.70;99.90;;;;;;4957483;28;20417;-82
2022/02/24 05:19:50;;;;;;;11.67;5.10;;;1.80;99.90;;;;;;4957523;28;20439;-85
2022/02/24 05:22:15;;;;;;;13.40;5.38;;;1.80;99.90;;;;;;4957064;28;20414;-85
2022/02/24 05:24:42;;;;;;;8.73;4.90;;;1.80;99.90;;;;;;4957712;28;20434;-83
2022/02/24 05:27:08;;;;;;;11.77;5.25;;;1.70;99.90;;;;;;4973987;28;20426;-85
2022/02/24 05:29:33;;;;;;;12.60;5.30;;;1.80;99.90;;;;;;4957401;28;20430;-82
2022/02/24 05:31:59;;;;;;;11.13;5.10;;;1.90;99.90;;;;;;4956968;28;20453;-86
2022/02/24 05:34:26;;;;;;;14.63;5.93;;;2.00;99.90;;;;;;4957382;28;20429;-82
2022/02/24 05:36:52;;;;;;;9.93;5.30;;;2.00;99.90;;;;;;4957128;28;20881;-87
2022/02/24 05:39:17;;;;;;;12.57;5.32;;;2.10;99.90;;;;;;4957287;28;20410;-84
2022/02/24 05:41:43;;;;;;;14.25;5.30;;;2.20;99.90;;;;;;4956488;28;20395;-84
2022/02/24 05:44:09;;;;;;;13.50;5.07;;;2.30;99.90;;;;;;4973683;28;20462;-83
2022/02/24 05:46:34;;;;;;;12.00;5.33;;;2.30;99.90;;;;;;4973755;28;20379;-85
2022/02/24 05:49:06;;;;;;;10.13;5.33;;;2.40;99.90;;;;;;4974636;28;20394;-85
2022/02/24 05:51:33;;;;;;;13.03;5.37;;;2.50;99.90;;;;;;4992283;28;20559;-88
2022/02/24 05:53:58;;;;;;;7.72;4.30;;;2.50;99.90;;;;;;4976851;28;20381;-86
2022/02/24 05:56:24;;;;;;;11.95;5.07;;;2.60;99.90;;;;;;4974824;28;20378;-84
2022/02/24 05:58:51;;;;;;;8.70;4.70;;;2.70;99.90;;;;;;4974944;28;20375;-86
2022/02/24 06:01:16;;;;;;;8.93;4.82;;;2.80;99.90;;;;;;4983504;28;20396;-85
2022/02/24 06:03:42;;;;;;;10.67;5.23;;;2.70;99.90;;;;;;4993086;28;20416;-84
2022/02/24 06:06:08;;;;;;;9.37;4.90;;;2.80;99.90;;;;;;4987494;28;20396;-86
2022/02/24 06:08:33;;;;;;;10.55;5.13;;;2.90;99.90;;;;;;4974509;28;20477;-86
2022/02/24 06:11:00;;;;;;;11.30;5.40;;;2.90;99.90;;;;;;4973514;28;20382;-87
2022/02/24 06:13:26;;;;;;;13.82;4.85;;;3.10;99.90;;;;;;4972647;28;20394;-88
2022/02/24 06:15:52;;;;;;;8.98;4.88;;;3.10;99.90;;;;;;4957405;28;20401;-86
2022/02/24 06:18:18;;;;;;;8.82;5.07;;;3.10;99.90;;;;;;4963083;28;20479;-83
2022/02/24 06:20:45;;;;;;;10.85;5.80;;;3.20;99.90;;;;;;4977191;28;20902;-85
2022/02/24 06:23:11;;;;;;;11.55;6.05;;;3.30;99.90;;;;;;4967570;28;20825;-84
2022/02/24 06:25:36;;;;;;;14.17;6.07;;;3.30;99.90;;;;;;4967203;28;20425;-86
2022/02/24 06:28:02;;;;;;;10.98;5.38;;;3.30;99.90;;;;;;4967504;28;20393;-85
2022/02/24 06:30:29;;;;;;;9.88;4.70;;;3.30;99.90;;;;;;4984608;28;20397;-86
2022/02/24 06:32:54;;;;;;;8.33;4.63;;;3.40;99.90;;;;;;4993782;28;20393;-84
2022/02/24 06:35:20;;;;;;;8.23;4.90;;;3.40;99.90;;;;;;4994113;28;20377;-86
2022/02/24 06:37:46;;;;;;;10.43;4.87;;;3.40;99.90;;;;;;4975689;28;20389;-84
2022/02/24 06:40:13;;;;;;;11.32;5.00;;;3.60;99.90;;;;;;4993168;28;20439;-86
2022/02/24 06:42:39;;;;;;;9.25;4.78;;;3.60;99.90;;;;;;4992591;28;20421;-84
2022/02/24 06:45:06;;;;;;;10.52;4.80;;;3.60;99.90;;;;;;4973883;28;20385;-83
2022/02/24 06:47:32;;;;;;;12.00;4.85;;;3.70;99.90;;;;;;4992313;28;20407;-87
2022/02/24 06:49:58;;;;;;;9.55;4.90;;;3.70;99.90;;;;;;4991837;28;20405;-85
2022/02/24 06:52:23;;;;;;;8.30;5.07;;;3.70;99.90;;;;;;4973365;28;20913;-84
2022/02/24 06:54:49;;;;;;;14.97;6.33;;;3.80;99.90;;;;;;4991461;28;20388;-85
2022/02/24 06:57:14;;;;;;;11.57;5.80;;;3.80;99.90;;;;;;4974048;28;20431;-87
2022/02/24 06:59:40;;;;;;;12.57;5.43;;;3.80;99.90;;;;;;4973704;28;20428;-84
2022/02/24 07:02:06;;;;;;;9.77;4.95;;;3.80;99.90;;;;;;4973871;28;20483;-88
2022/02/24 07:04:35;;;;;;;11.48;5.63;;;3.80;99.90;;;;;;4973953;28;20425;-85
2022/02/24 07:07:02;;;;;;;9.77;5.15;;;3.90;99.90;;;;;;4991332;28;20381;-84
2022/02/24 07:09:28;;;;;;;11.05;5.53;;;3.90;99.90;;;;;;4973645;28;20393;-86
2022/02/24 07:11:55;;;;;;;11.07;5.20;;;4.00;99.90;;;;;;4973489;28;20405;-88
2022/02/24 07:14:21;;;;;;;10.32;5.07;;;4.00;99.90;;;;;;4981810;28;20888;-86
2022/02/24 07:16:47;;;;;;;11.25;5.18;;;4.10;99.90;;;;;;4961910;28;20382;-88
2022/02/24 07:19:14;;;;;;;10.02;4.85;;;4.10;99.90;;;;;;4977118;28;20397;-86
2022/02/24 07:21:40;;;;;;;9.23;4.70;;;4.20;99.90;;;;;;4973454;28;20389;-87
2022/02/24 07:24:05;;;;;;;10.18;4.45;;;4.20;99.90;;;;;;4967580;28;20457;-86
2022/02/24 07:26:31;;;;;;;7.40;4.68;;;4.40;99.90;;;;;;4989153;28;20404;-87
2022/02/24 07:28:57;;;;;;;10.80;4.17;;;4.40;99.90;;;;;;4965653;28;20385;-87
2022/02/24 07:31:25;;;;;;;9.20;4.50;;;4.30;99.90;;;;;;4973308;28;20448;-87
2022/02/24 07:33:51;;;;;;;7.18;4.13;;;4.40;99.90;;;;;;4974452;28;20404;-86
2022/02/24 07:36:16;;;;;;;9.30;4.30;;;4.40;99.90;;;;;;4973825;28;20396;-84
2022/02/24 07:38:43;;;;;;;11.27;4.50;;;4.50;99.90;;;;;;4974539;28;20949;-87
2022/02/24 07:41:09;;;;;;;10.10;4.30;;;4.60;99.90;;;;;;4972789;28;20408;-86
2022/02/24 07:43:37;;;;;;;10.47;4.50;;;4.70;99.90;;;;;;4977179;28;20419;-86
2022/02/24 07:46:03;;;;;;;11.07;4.35;;;4.70;99.90;;;;;;4973608;28;20392;-83
2022/02/24 07:48:29;;;;;;;10.60;4.50;;;4.80;99.90;;;;;;4991847;28;20377;-87
2022/02/24 07:50:55;;;;;;;10.15;4.43;;;4.90;99.90;;;;;;4990446;28;20395;-88
2022/02/24 07:53:22;;;;;;;8.90;4.10;;;5.00;99.90;;;;;;4973681;28;21125;-84
2022/02/24 07:55:48;;;;;;;9.00;4.43;;;5.10;99.90;;;;;;4968262;28;20394;-84
2022/02/24 07:58:16;;;;;;;8.93;3.80;;;5.10;99.90;;;;;;4963861;28;20390;-85
2022/02/24 08:00:45;;;;;;;10.63;4.00;;;5.20;99.90;;;;;;4953193;28;20465;-82
2022/02/24 08:03:11;;;;;;;10.25;3.97;;;5.40;99.90;;;;;;4968777;28;20421;-85
2022/02/24 08:05:41;;;;;;;8.63;4.00;;;5.50;99.90;;;;;;4972385;28;20421;-86
2022/02/24 08:08:06;;;;;;;9.25;4.20;;;5.60;99.90;;;;;;4972881;28;20419;-86
2022/02/24 08:10:38;;;;;;;10.85;4.25;;;5.80;99.90;;;;;;4973697;28;20416;-87
2022/02/24 08:13:03;;;;;;;8.17;4.00;;;5.80;99.90;;;;;;4992412;28;20943;-85
2022/02/24 08:15:30;;;;;;;10.03;4.87;;;6.00;99.90;;;;;;4988464;28;20388;-85
2022/02/24 08:17:56;;;;;;;9.75;4.20;;;6.10;99.90;;;;;;5010069;28;20388;-82
2022/02/24 08:20:22;;;;;;;9.07;4.37;;;6.10;99.90;;;;;;5010785;28;20521;-87
2022/02/24 08:22:53;;;;;;;9.23;4.20;;;6.10;99.90;;;;;;4992393;28;20411;-86
2022/02/24 08:25:20;;;;;;;10.13;4.30;;;6.20;99.90;;;;;;4992200;28;20398;-88
2022/02/24 08:27:47;;;;;;;7.55;3.88;;;6.40;99.90;;;;;;4992519;28;20396;-85
2022/02/24 08:30:16;;;;;;;9.88;4.38;;;6.40;99.90;;;;;;4976423;28;20509;-86
2022/02/24 08:32:43;;;;;;;9.13;4.40;;;6.60;99.90;;;;;;5010051;28;20383;-85
2022/02/24 08:35:10;;;;;;;8.10;3.70;;;6.80;99.90;;;;;;4992817;28;20383;-85
2022/02/24 08:37:38;;;;;;;7.72;4.03;;;6.80;99.90;;;;;;5009043;28;20761;-84
2022/02/24 08:40:05;;;;;;;8.18;3.90;;;6.70;99.90;;;;;;4989559;28;20394;-87
2022/02/24 08:42:31;;;;;;;10.57;4.80;;;6.60;99.90;;;;;;4970056;28;20466;-87
2022/02/24 08:45:15;;;;;;;9.53;4.30;;;6.50;99.90;;;;;;4971509;28;20844;-86
2022/02/24 08:47:42;;;;;;;9.03;4.47;;;6.60;99.90;;;;;;4954818;28;20474;-89
2022/02/24 08:50:21;;;;;;;11.90;5.40;;;6.70;99.90;;;;;;4972685;28;20398;-85
2022/02/24 08:52:47;;;;;;;9.27;4.53;;;6.90;99.90;;;;;;4971502;28;20950;-85
2022/02/24 08:55:13;;;;;;;10.73;5.05;;;7.00;99.90;;;;;;4971952;28;20468;-84
2022/02/24 08:57:39;;;;;;;10.60;5.50;;;7.10;99.90;;;;;;4990086;28;20539;-87
2022/02/24 09:00:07;;;;;;;9.87;5.33;;;7.10;99.90;;;;;;4989040;28;20404;-87
2022/02/24 09:02:33;;;;;;;12.63;5.78;;;7.10;99.90;;;;;;4970239;28;21055;-86
2022/02/24 09:04:59;;;;;;;11.35;5.50;;;7.20;99.90;;;;;;4989752;28;20385;-86
2022/02/24 09:07:26;;;;;;;11.97;5.93;;;7.30;99.90;;;;;;4974138;28;20400;-86
2022/02/24 09:09:51;;;;;;;9.63;5.22;;;7.40;99.90;;;;;;4972366;28;20852;-88
2022/02/24 09:12:17;;;;;;;12.33;5.63;;;7.60;99.90;;;;;;4982103;28;20520;-85
2022/02/24 09:14:43;;;;;;;8.88;4.80;;;7.90;99.90;;;;;;4972266;28;20787;-89
2022/02/24 09:17:10;;;;;;;10.80;5.25;;;8.20;99.90;;;;;;4994311;28;20392;-85
2022/02/24 09:19:36;;;;;;;8.65;5.20;;;8.30;99.90;;;;;;4994429;28;20389;-87
2022/02/24 09:22:01;;;;;;;10.82;5.15;;;8.40;99.90;;;;;;4969056;28;20485;-85
2022/02/24 09:24:28;;;;;;;11.20;4.95;;;8.30;99.90;;;;;;4974416;28;20414;-84
2022/02/24 09:26:53;;;;;;;8.55;4.47;;;8.30;99.90;;;;;;4957342;28;20904;-84
2022/02/24 09:29:19;;;;;;;9.35;4.43;;;8.20;99.90;;;;;;4956914;28;20409;-84
2022/02/24 09:31:44;;;;;;;10.53;4.83;;;8.20;99.90;;;;;;4982164;28;20385;-85
2022/02/24 09:34:10;;;;;;;7.10;4.15;;;8.10;99.90;;;;;;4976381;28;20455;-84
2022/02/24 09:36:36;;;;;;;10.60;4.55;;;8.10;99.90;;;;;;4993408;28;20404;-85
2022/02/24 09:39:01;;;;;;;7.30;3.93;;;8.10;99.90;;;;;;4964893;28;20414;-83
2022/02/24 09:41:27;;;;;;;10.60;5.10;;;8.30;99.90;;;;;;4970391;28;20403;-85
2022/02/24 09:43:54;;;;;;;8.25;4.63;;;8.40;99.90;;;;;;4966369;28;20432;-87
2022/02/24 09:46:21;;;;;;;8.07;4.10;;;8.60;99.90;;;;;;4992700;28;20401;-85
2022/02/24 09:48:49;;;;;;;7.45;4.30;;;8.80;99.90;;;;;;4975889;28;21432;-85
2022/02/24 09:51:17;;;;;;;10.18;4.90;;;8.90;99.90;;;;;;4976059;28;20449;-85
2022/02/24 09:53:48;;;;;;;9.40;4.85;;;9.10;99.90;;;;;;4965397;28;20458;-87
2022/02/24 09:56:20;;;;;;;8.35;4.30;;;9.20;99.90;;;;;;4970249;28;20410;-87
2022/02/24 09:58:48;;;;;;;8.88;4.05;;;9.30;99.90;;;;;;4987395;28;20439;-86
2022/02/24 10:01:14;;;;;;;6.75;3.88;;;9.20;99.90;;;;;;4975187;28;20397;-85
2022/02/24 10:03:45;;;;;;;8.77;4.17;;;9.30;99.90;;;;;;4975100;28;20416;-86
2022/02/24 10:06:13;;;;;;;8.55;4.05;;;9.00;99.90;;;;;;4973270;28;20416;-86
2022/02/24 10:08:45;;;;;;;8.43;3.90;;;8.80;99.90;;;;;;4974807;28;20882;-84
2022/02/24 10:11:27;;;;;;;10.43;4.10;;;8.80;99.90;;;;;;4990713;28;20492;-85
2022/02/24 10:14:00;;;;;;;9.05;4.35;;;8.80;99.90;;;;;;4992902;28;20396;-85
2022/02/24 10:16:28;;;;;;;10.95;4.53;;;8.80;99.90;;;;;;4962638;28;20407;-86
2022/02/24 10:18:55;;;;;;;6.70;4.10;;;8.80;99.90;;;;;;4988461;28;20449;-88
2022/02/24 10:21:21;;;;;;;8.35;4.47;;;8.70;99.90;;;;;;4974211;28;21275;-87
2022/02/24 10:23:50;;;;;;;9.30;4.40;;;8.60;99.90;;;;;;4990075;28;20448;-88
2022/02/24 10:26:17;;;;;;;9.65;4.30;;;8.70;99.90;;;;;;4979458;28;20432;-83
2022/02/24 10:28:49;;;;;;;10.00;4.28;;;8.80;99.90;;;;;;4968867;28;20414;-83
2022/02/24 10:31:24;;;;;;;7.68;4.55;;;9.00;99.90;;;;;;4956827;28;20394;-90
2022/02/24 10:33:52;;;;;;;8.10;3.80;;;9.20;99.90;;;;;;4959719;28;20521;-83
2022/02/24 10:36:23;;;;;;;7.40;4.00;;;9.30;99.90;;;;;;4958274;28;20393;-88
2022/02/24 10:39:07;;;;;;;7.15;3.72;;;9.40;99.90;;;;;;4982015;28;20440;-86
2022/02/24 10:41:34;;;;;;;8.02;3.90;;;9.40;99.90;;;;;;4975109;28;20389;-84
2022/02/24 10:44:19;;;;;;;10.03;4.33;;;9.30;99.90;;;;;;4991294;28;20420;-88
2022/02/24 10:46:48;;;;;;;9.38;4.25;;;9.30;99.90;;;;;;4956115;28;20394;-85
2022/02/24 10:49:27;;;;;;;10.95;4.35;;;9.40;99.90;;;;;;4955580;28;20479;-89
2022/02/24 10:52:15;;;;;;;7.50;4.13;;;9.50;99.90;;;;;;4959306;28;20859;-88
2022/02/24 10:54:54;;;;;;;7.63;3.65;;;9.60;99.90;;;;;;4990932;28;20381;-85
2022/02/24 10:57:24;;;;;;;9.10;4.18;;;9.50;99.90;;;;;;4990782;28;20397;-85
2022/02/24 10:59:50;;;;;;;10.00;4.17;;;9.60;99.90;;;;;;4974240;28;20408;-87
2022/02/24 11:02:16;;;;;;;9.88;3.95;;;9.70;99.90;;;;;;4990955;28;20409;-83
2022/02/24 11:04:44;;;;;;;8.20;4.40;;;9.90;99.90;;;;;;4990976;28;20389;-86
2022/02/24 11:07:11;;;;;;;7.03;4.00;;;9.90;99.90;;;;;;4987882;28;20419;-86
2022/02/24 11:09:39;;;;;;;8.80;4.78;;;9.90;99.90;;;;;;4986356;28;20461;-88
2022/02/24 11:12:07;;;;;;;8.13;4.13;;;9.80;99.90;;;;;;4954756;28;20461;-83
2022/02/24 11:14:37;;;;;;;7.50;4.40;;;9.70;99.90;;;;;;4971143;28;20387;-89
2022/02/24 11:17:08;;;;;;;8.82;4.45;;;9.80;99.90;;;;;;4973719;28;20414;-84
2022/02/24 11:19:36;;;;;;;7.53;4.07;;;9.70;99.90;;;;;;4987770;28;20403;-86
2022/02/24 11:22:03;;;;;;;9.88;4.70;;;9.70;99.90;;;;;;4956920;28;20467;-89
2022/02/24 11:24:29;;;;;;;11.00;4.28;;;9.60;99.90;;;;;;4996326;28;20392;-87
2022/02/24 11:27:11;;;;;;;7.57;4.30;;;9.50;99.90;;;;;;4976091;28;20381;-87
2022/02/24 11:29:55;;;;;;;10.20;4.55;;;9.40;99.90;;;;;;4959742;28;20453;-87
2022/02/24 11:32:27;;;;;;;7.90;4.30;;;9.50;99.90;;;;;;4954814;28;20403;-86
2022/02/24 11:35:10;;;;;;;11.05;4.55;;;9.50;99.90;;;;;;4955560;28;20755;-87
2022/02/24 11:37:47;;;;;;;9.20;4.30;;;9.40;99.90;;;;;;4975955;28;20726;-83
2022/02/24 11:40:37;;;;;;;8.80;3.85;;;9.40;99.90;;;;;;4972139;28;20395;-84
2022/02/24 11:43:11;;;;;;;7.55;3.80;;;9.40;99.90;;;;;;4974039;28;20473;-83
2022/02/24 11:46:03;;;;;;;8.88;4.18;;;9.30;99.90;;;;;;4975800;28;20553;-87
2022/02/24 11:48:34;;;;;;;10.70;4.00;;;9.30;99.90;;;;;;4968642;28;20389;-85
2022/02/24 11:51:03;;;;;;;10.15;4.30;;;9.30;99.90;;;;;;4976465;28;20397;-87
2022/02/24 11:53:39;;;;;;;8.38;3.88;;;9.40;99.90;;;;;;4992777;28;20882;-86
2022/02/24 11:56:19;;;;;;;10.77;4.22;;;9.40;99.90;;;;;;4990872;28;20393;-87
2022/02/24 11:58:50;;;;;;;8.03;4.07;;;9.40;99.90;;;;;;4996074;28;20413;-84
2022/02/24 12:01:44;;;;;;;9.05;4.15;;;9.40;99.90;;;;;;4977664;28;20428;-82
2022/02/24 12:04:25;;;;;;;8.75;4.57;;;9.50;99.90;;;;;;4991435;28;20874;-86
2022/02/24 12:06:54;;;;;;;11.77;4.60;;;9.60;99.90;;;;;;4973240;28;20497;-86
2022/02/24 12:09:29;;;;;;;7.75;3.90;;;9.60;99.90;;;;;;4962290;28;20394;-85
2022/02/24 12:12:01;;;;;;;10.65;4.40;;;9.50;99.90;;;;;;4983189;28;20443;-85
2022/02/24 12:14:27;;;;;;;8.23;3.95;;;9.50;99.90;;;;;;4991130;28;20377;-83
2022/02/24 12:17:03;;;;;;;8.00;3.97;;;9.60;99.90;;;;;;4990621;28;20376;-87
2022/02/24 12:19:38;;;;;;;8.48;4.35;;;9.60;99.90;;;;;;4973368;28;20451;-86
2022/02/24 12:22:29;;;;;;;8.95;4.18;;;9.60;99.90;;;;;;5010967;28;20407;-86
2022/02/24 12:25:02;;;;;;;9.15;4.10;;;9.60;99.90;;;;;;5011459;28;20386;-85
2022/02/24 12:27:38;;;;;;;9.85;4.55;;;9.60;99.90;;;;;;4977961;28;20455;-86
2022/02/24 12:30:19;;;;;;;8.90;4.43;;;9.50;99.90;;;;;;4992050;28;20431;-83
2022/02/24 12:33:05;;;;;;;8.80;4.40;;;9.60;99.90;;;;;;4979055;28;20884;-81
2022/02/24 12:35:42;;;;;;;7.53;4.32;;;9.60;99.90;;;;;;4958905;28;20445;-87
2022/02/24 12:38:11;;;;;;;10.00;4.28;;;9.60;99.90;;;;;;4973366;28;20519;-85
2022/02/24 12:40:42;;;;;;;10.02;4.50;;;9.70;99.90;;;;;;4960946;28;20423;-85
2022/02/24 12:43:11;;;;;;;8.40;4.10;;;9.50;99.90;;;;;;4979478;28;20479;-84
2022/02/24 12:45:38;;;;;;;8.38;4.35;;;9.60;99.90;;;;;;4971476;28;20890;-84
2022/02/24 12:48:06;;;;;;;9.63;4.50;;;9.60;99.90;;;;;;4986785;28;20397;-84
2022/02/24 12:50:38;;;;;;;9.73;4.07;;;9.80;99.90;;;;;;4956906;28;20426;-86
2022/02/24 12:53:11;;;;;;;7.55;4.22;;;10.30;99.90;;;;;;4972588;28;20405;-86